sensor_id;sensor_type;location;lat;lon;timestamp;temperature;humidity
45489;DHT22;31236;55.026;61.042;2023-08-12T00:02:04;13.80;84.30
45489;DHT22;31236;55.026;61.042;2023-08-12T00:04:34;13.70;84.40
45489;DHT22;31236;55.026;61.042;2023-08-12T00:07:05;13.60;84.70
45489;DHT22;31236;55.026;61.042;2023-08-12T00:09:35;13.70;84.80
45489;DHT22;31236;55.026;61.042;2023-08-12T00:12:06;13.60;84.80
45489;DHT22;31236;55.026;61.042;2023-08-12T00:14:36;13.70;84.80
45489;DHT22;31236;55.026;61.042;2023-08-12T00:17:06;13.60;85.00
45489;DHT22;31236;55.026;61.042;2023-08-12T00:19:36;13.60;85.00
45489;DHT22;31236;55.026;61.042;2023-08-12T00:22:06;13.60;85.10
45489;DHT22;31236;55.026;61.042;2023-08-12T00:24:36;13.60;85.40
45489;DHT22;31236;55.026;61.042;2023-08-12T00:27:07;13.60;85.40
45489;DHT22;31236;55.026;61.042;2023-08-12T00:29:37;13.60;85.60
45489;DHT22;31236;55.026;61.042;2023-08-12T00:32:09;13.60;85.70
45489;DHT22;31236;55.026;61.042;2023-08-12T00:34:39;13.60;85.70
45489;DHT22;31236;55.026;61.042;2023-08-12T00:37:09;13.50;85.90
45489;DHT22;31236;55.026;61.042;2023-08-12T00:39:39;13.50;86.00
45489;DHT22;31236;55.026;61.042;2023-08-12T00:42:09;13.50;86.00
45489;DHT22;31236;55.026;61.042;2023-08-12T00:44:39;13.50;86.10
45489;DHT22;31236;55.026;61.042;2023-08-12T00:47:09;13.50;86.20
45489;DHT22;31236;55.026;61.042;2023-08-12T00:49:40;13.50;86.20
45489;DHT22;31236;55.026;61.042;2023-08-12T00:52:31;13.60;86.30
45489;DHT22;31236;55.026;61.042;2023-08-12T00:55:01;13.50;86.20
45489;DHT22;31236;55.026;61.042;2023-08-12T00:57:32;13.60;86.40
45489;DHT22;31236;55.026;61.042;2023-08-12T01:00:03;13.60;86.50
45489;DHT22;31236;55.026;61.042;2023-08-12T01:02:34;13.50;86.60
45489;DHT22;31236;55.026;61.042;2023-08-12T01:05:04;13.60;86.50
45489;DHT22;31236;55.026;61.042;2023-08-12T01:07:35;13.60;86.60
45489;DHT22;31236;55.026;61.042;2023-08-12T01:10:05;13.60;86.70
45489;DHT22;31236;55.026;61.042;2023-08-12T01:12:36;13.50;86.80
45489;DHT22;31236;55.026;61.042;2023-08-12T01:15:27;13.50;86.90
45489;DHT22;31236;55.026;61.042;2023-08-12T01:18:18;13.50;87.00
45489;DHT22;31236;55.026;61.042;2023-08-12T01:20:50;13.50;87.00
45489;DHT22;31236;55.026;61.042;2023-08-12T01:23:20;13.40;87.20
45489;DHT22;31236;55.026;61.042;2023-08-12T01:25:50;13.50;87.50
45489;DHT22;31236;55.026;61.042;2023-08-12T01:28:20;13.50;87.60
45489;DHT22;31236;55.026;61.042;2023-08-12T01:30:55;13.50;87.70
45489;DHT22;31236;55.026;61.042;2023-08-12T01:33:45;13.50;87.80
45489;DHT22;31236;55.026;61.042;2023-08-12T01:39:08;13.60;87.70
45489;DHT22;31236;55.026;61.042;2023-08-12T01:41:39;13.70;87.80
45489;DHT22;31236;55.026;61.042;2023-08-12T01:44:10;13.70;87.90
45489;DHT22;31236;55.026;61.042;2023-08-12T01:46:43;13.70;88.00
45489;DHT22;31236;55.026;61.042;2023-08-12T01:49:13;13.80;88.10
45489;DHT22;31236;55.026;61.042;2023-08-12T01:51:43;13.90;88.10
45489;DHT22;31236;55.026;61.042;2023-08-12T01:54:13;13.90;88.10
45489;DHT22;31236;55.026;61.042;2023-08-12T01:56:43;14.00;88.20
45489;DHT22;31236;55.026;61.042;2023-08-12T01:59:13;14.00;88.10
45489;DHT22;31236;55.026;61.042;2023-08-12T02:01:43;14.10;88.10
45489;DHT22;31236;55.026;61.042;2023-08-12T02:04:14;14.10;88.10
45489;DHT22;31236;55.026;61.042;2023-08-12T02:06:46;14.20;88.20
45489;DHT22;31236;55.026;61.042;2023-08-12T02:09:17;14.30;88.20
45489;DHT22;31236;55.026;61.042;2023-08-12T02:11:47;14.30;88.10
45489;DHT22;31236;55.026;61.042;2023-08-12T02:14:18;14.30;88.10
45489;DHT22;31236;55.026;61.042;2023-08-12T02:16:48;14.30;88.20
45489;DHT22;31236;55.026;61.042;2023-08-12T02:19:19;14.40;88.30
45489;DHT22;31236;55.026;61.042;2023-08-12T02:21:49;14.40;88.30
45489;DHT22;31236;55.026;61.042;2023-08-12T02:24:19;14.40;88.20
45489;DHT22;31236;55.026;61.042;2023-08-12T02:26:49;14.50;88.20
45489;DHT22;31236;55.026;61.042;2023-08-12T02:29:19;14.60;88.10
45489;DHT22;31236;55.026;61.042;2023-08-12T02:31:50;14.60;88.10
45489;DHT22;31236;55.026;61.042;2023-08-12T02:34:19;14.70;88.10
45489;DHT22;31236;55.026;61.042;2023-08-12T02:36:50;14.70;88.00
45489;DHT22;31236;55.026;61.042;2023-08-12T02:39:20;14.80;88.00
45489;DHT22;31236;55.026;61.042;2023-08-12T02:41:50;14.90;88.00
45489;DHT22;31236;55.026;61.042;2023-08-12T02:44:20;15.00;87.90
45489;DHT22;31236;55.026;61.042;2023-08-12T02:46:50;15.00;87.80
45489;DHT22;31236;55.026;61.042;2023-08-12T02:49:20;15.10;87.80
45489;DHT22;31236;55.026;61.042;2023-08-12T02:51:50;15.20;87.70
45489;DHT22;31236;55.026;61.042;2023-08-12T02:54:20;15.20;87.60
45489;DHT22;31236;55.026;61.042;2023-08-12T02:56:51;15.30;87.60
45489;DHT22;31236;55.026;61.042;2023-08-12T02:59:21;15.30;87.50
45489;DHT22;31236;55.026;61.042;2023-08-12T03:01:52;15.40;87.40
45489;DHT22;31236;55.026;61.042;2023-08-12T03:04:22;15.50;87.40
45489;DHT22;31236;55.026;61.042;2023-08-12T03:06:53;15.60;87.30
45489;DHT22;31236;55.026;61.042;2023-08-12T03:09:23;15.60;87.20
45489;DHT22;31236;55.026;61.042;2023-08-12T03:11:53;15.70;87.20
45489;DHT22;31236;55.026;61.042;2023-08-12T03:14:23;15.70;87.10
45489;DHT22;31236;55.026;61.042;2023-08-12T03:16:54;15.80;87.10
45489;DHT22;31236;55.026;61.042;2023-08-12T03:19:24;15.80;86.90
45489;DHT22;31236;55.026;61.042;2023-08-12T03:21:53;15.90;86.90
45489;DHT22;31236;55.026;61.042;2023-08-12T03:31:40;16.10;86.00
45489;DHT22;31236;55.026;61.042;2023-08-12T03:44:56;16.40;85.20
45489;DHT22;31236;55.026;61.042;2023-08-12T03:47:26;16.50;84.70
45489;DHT22;31236;55.026;61.042;2023-08-12T03:49:57;16.60;84.90
45489;DHT22;31236;55.026;61.042;2023-08-12T03:52:27;16.80;84.80
45489;DHT22;31236;55.026;61.042;2023-08-12T03:54:57;16.90;84.50
45489;DHT22;31236;55.026;61.042;2023-08-12T03:57:27;16.90;84.20
45489;DHT22;31236;55.026;61.042;2023-08-12T03:59:59;17.00;83.90
45489;DHT22;31236;55.026;61.042;2023-08-12T04:02:29;17.10;83.70
45489;DHT22;31236;55.026;61.042;2023-08-12T04:04:59;17.20;83.60
45489;DHT22;31236;55.026;61.042;2023-08-12T04:07:31;17.20;83.40
45489;DHT22;31236;55.026;61.042;2023-08-12T04:10:02;17.40;83.10
45489;DHT22;31236;55.026;61.042;2023-08-12T04:12:32;17.40;82.70
45489;DHT22;31236;55.026;61.042;2023-08-12T04:15:03;17.40;82.20
45489;DHT22;31236;55.026;61.042;2023-08-12T04:17:33;17.40;81.90
45489;DHT22;31236;55.026;61.042;2023-08-12T04:20:04;17.50;81.70
45489;DHT22;31236;55.026;61.042;2023-08-12T04:22:34;17.60;81.40
45489;DHT22;31236;55.026;61.042;2023-08-12T04:25:05;17.70;81.20
45489;DHT22;31236;55.026;61.042;2023-08-12T04:27:35;17.90;80.90
45489;DHT22;31236;55.026;61.042;2023-08-12T04:30:06;18.00;80.40
45489;DHT22;31236;55.026;61.042;2023-08-12T04:32:36;18.00;80.00
45489;DHT22;31236;55.026;61.042;2023-08-12T04:35:07;18.00;79.60
45489;DHT22;31236;55.026;61.042;2023-08-12T04:37:37;18.10;79.10
45489;DHT22;31236;55.026;61.042;2023-08-12T04:40:08;18.20;78.80
45489;DHT22;31236;55.026;61.042;2023-08-12T04:42:39;18.20;78.10
45489;DHT22;31236;55.026;61.042;2023-08-12T04:45:10;18.20;77.60
45489;DHT22;31236;55.026;61.042;2023-08-12T04:47:40;18.20;77.20
45489;DHT22;31236;55.026;61.042;2023-08-12T04:50:10;18.20;76.60
45489;DHT22;31236;55.026;61.042;2023-08-12T04:52:40;18.20;75.70
45489;DHT22;31236;55.026;61.042;2023-08-12T04:55:10;18.20;75.30
45489;DHT22;31236;55.026;61.042;2023-08-12T04:57:40;18.20;74.20
45489;DHT22;31236;55.026;61.042;2023-08-12T05:00:11;18.20;72.70
45489;DHT22;31236;55.026;61.042;2023-08-12T05:02:42;18.30;71.80
45489;DHT22;31236;55.026;61.042;2023-08-12T05:05:12;18.30;70.90
45489;DHT22;31236;55.026;61.042;2023-08-12T05:07:42;18.40;70.20
45489;DHT22;31236;55.026;61.042;2023-08-12T05:12:46;18.40;69.20
45489;DHT22;31236;55.026;61.042;2023-08-12T05:15:17;18.50;68.10
45489;DHT22;31236;55.026;61.042;2023-08-12T05:17:48;18.60;67.30
45489;DHT22;31236;55.026;61.042;2023-08-12T05:20:18;18.60;66.70
45489;DHT22;31236;55.026;61.042;2023-08-12T05:22:49;18.80;66.60
45489;DHT22;31236;55.026;61.042;2023-08-12T05:25:19;18.80;66.30
45489;DHT22;31236;55.026;61.042;2023-08-12T05:27:49;18.90;65.90
45489;DHT22;31236;55.026;61.042;2023-08-12T05:30:19;19.00;65.80
45489;DHT22;31236;55.026;61.042;2023-08-12T05:32:50;19.10;65.30
45489;DHT22;31236;55.026;61.042;2023-08-12T05:35:20;19.00;64.40
45489;DHT22;31236;55.026;61.042;2023-08-12T05:37:51;19.00;64.40
45489;DHT22;31236;55.026;61.042;2023-08-12T05:40:21;19.10;64.20
45489;DHT22;31236;55.026;61.042;2023-08-12T05:42:51;19.10;64.00
45489;DHT22;31236;55.026;61.042;2023-08-12T05:45:21;19.30;63.90
45489;DHT22;31236;55.026;61.042;2023-08-12T05:47:52;19.40;63.40
45489;DHT22;31236;55.026;61.042;2023-08-12T05:50:23;19.40;62.90
45489;DHT22;31236;55.026;61.042;2023-08-12T05:52:53;19.40;62.70
45489;DHT22;31236;55.026;61.042;2023-08-12T05:55:23;19.40;62.60
45489;DHT22;31236;55.026;61.042;2023-08-12T05:57:53;19.50;62.40
45489;DHT22;31236;55.026;61.042;2023-08-12T06:00:24;19.50;61.70
45489;DHT22;31236;55.026;61.042;2023-08-12T06:02:54;19.60;61.60
45489;DHT22;31236;55.026;61.042;2023-08-12T06:05:24;19.60;61.20
45489;DHT22;31236;55.026;61.042;2023-08-12T06:07:54;19.50;60.60
45489;DHT22;31236;55.026;61.042;2023-08-12T06:10:24;19.50;60.90
45489;DHT22;31236;55.026;61.042;2023-08-12T06:12:54;19.50;60.40
45489;DHT22;31236;55.026;61.042;2023-08-12T06:15:24;19.50;60.20
45489;DHT22;31236;55.026;61.042;2023-08-12T06:17:54;19.50;60.00
45489;DHT22;31236;55.026;61.042;2023-08-12T06:20:25;19.60;59.80
45489;DHT22;31236;55.026;61.042;2023-08-12T06:22:56;19.60;59.00
45489;DHT22;31236;55.026;61.042;2023-08-12T06:25:26;19.60;58.60
45489;DHT22;31236;55.026;61.042;2023-08-12T06:27:56;19.70;58.50
45489;DHT22;31236;55.026;61.042;2023-08-12T06:30:26;19.80;58.20
45489;DHT22;31236;55.026;61.042;2023-08-12T06:32:57;19.80;58.00
45489;DHT22;31236;55.026;61.042;2023-08-12T06:35:27;19.80;57.80
45489;DHT22;31236;55.026;61.042;2023-08-12T06:37:57;19.80;57.20
45489;DHT22;31236;55.026;61.042;2023-08-12T06:40:27;19.80;56.80
45489;DHT22;31236;55.026;61.042;2023-08-12T06:42:58;19.80;56.50
45489;DHT22;31236;55.026;61.042;2023-08-12T06:45:28;19.80;56.40
45489;DHT22;31236;55.026;61.042;2023-08-12T06:47:58;19.90;56.30
45489;DHT22;31236;55.026;61.042;2023-08-12T06:50:29;20.00;56.30
45489;DHT22;31236;55.026;61.042;2023-08-12T06:53:00;20.10;56.20
45489;DHT22;31236;55.026;61.042;2023-08-12T06:55:30;20.20;55.90
45489;DHT22;31236;55.026;61.042;2023-08-12T06:58:00;20.30;56.20
45489;DHT22;31236;55.026;61.042;2023-08-12T07:00:30;20.50;56.10
45489;DHT22;31236;55.026;61.042;2023-08-12T07:03:01;20.40;55.90
45489;DHT22;31236;55.026;61.042;2023-08-12T07:05:32;20.30;55.60
45489;DHT22;31236;55.026;61.042;2023-08-12T07:08:02;20.30;55.20
45489;DHT22;31236;55.026;61.042;2023-08-12T07:10:32;20.40;55.50
45489;DHT22;31236;55.026;61.042;2023-08-12T07:13:03;20.50;55.50
45489;DHT22;31236;55.026;61.042;2023-08-12T07:15:32;20.50;55.10
45489;DHT22;31236;55.026;61.042;2023-08-12T07:18:03;20.50;55.10
45489;DHT22;31236;55.026;61.042;2023-08-12T07:20:33;20.50;55.20
45489;DHT22;31236;55.026;61.042;2023-08-12T07:23:03;20.60;55.10
45489;DHT22;31236;55.026;61.042;2023-08-12T07:25:33;20.60;55.10
45489;DHT22;31236;55.026;61.042;2023-08-12T07:28:04;20.60;55.10
45489;DHT22;31236;55.026;61.042;2023-08-12T07:30:53;20.60;54.80
45489;DHT22;31236;55.026;61.042;2023-08-12T07:33:24;20.60;54.30
45489;DHT22;31236;55.026;61.042;2023-08-12T07:35:54;20.60;54.00
45489;DHT22;31236;55.026;61.042;2023-08-12T07:38:24;20.60;53.60
45489;DHT22;31236;55.026;61.042;2023-08-12T07:40:55;20.50;53.20
45489;DHT22;31236;55.026;61.042;2023-08-12T07:43:25;20.50;53.10
45489;DHT22;31236;55.026;61.042;2023-08-12T07:45:55;20.60;52.90
45489;DHT22;31236;55.026;61.042;2023-08-12T07:48:25;20.60;52.70
45489;DHT22;31236;55.026;61.042;2023-08-12T07:54:42;20.70;52.30
45489;DHT22;31236;55.026;61.042;2023-08-12T07:57:12;20.70;52.20
45489;DHT22;31236;55.026;61.042;2023-08-12T07:59:43;20.70;52.20
45489;DHT22;31236;55.026;61.042;2023-08-12T08:02:13;20.70;51.80
45489;DHT22;31236;55.026;61.042;2023-08-12T08:04:43;20.60;51.60
45489;DHT22;31236;55.026;61.042;2023-08-12T08:07:16;20.60;51.60
45489;DHT22;31236;55.026;61.042;2023-08-12T08:09:46;20.60;51.20
45489;DHT22;31236;55.026;61.042;2023-08-12T08:12:16;20.60;51.00
45489;DHT22;31236;55.026;61.042;2023-08-12T08:14:46;20.70;51.10
45489;DHT22;31236;55.026;61.042;2023-08-12T08:17:16;20.80;51.10
45489;DHT22;31236;55.026;61.042;2023-08-12T08:19:46;20.70;50.70
45489;DHT22;31236;55.026;61.042;2023-08-12T08:22:16;20.70;50.90
45489;DHT22;31236;55.026;61.042;2023-08-12T08:24:47;20.70;50.90
45489;DHT22;31236;55.026;61.042;2023-08-12T08:27:17;20.70;50.80
45489;DHT22;31236;55.026;61.042;2023-08-12T08:29:47;20.80;51.00
45489;DHT22;31236;55.026;61.042;2023-08-12T08:32:17;20.80;50.50
45489;DHT22;31236;55.026;61.042;2023-08-12T08:34:47;20.80;50.50
45489;DHT22;31236;55.026;61.042;2023-08-12T08:37:17;20.90;50.90
45489;DHT22;31236;55.026;61.042;2023-08-12T08:39:47;21.00;50.80
45489;DHT22;31236;55.026;61.042;2023-08-12T08:42:19;20.90;50.60
45489;DHT22;31236;55.026;61.042;2023-08-12T08:44:52;20.90;50.60
45489;DHT22;31236;55.026;61.042;2023-08-12T08:47:58;20.90;50.80
45489;DHT22;31236;55.026;61.042;2023-08-12T08:49:56;20.80;50.90
45489;DHT22;31236;55.026;61.042;2023-08-12T08:52:27;20.80;51.00
45489;DHT22;31236;55.026;61.042;2023-08-12T08:54:57;20.90;51.30
45489;DHT22;31236;55.026;61.042;2023-08-12T08:57:27;21.00;51.20
45489;DHT22;31236;55.026;61.042;2023-08-12T08:59:58;21.00;51.20
45489;DHT22;31236;55.026;61.042;2023-08-12T09:02:28;21.00;51.30
45489;DHT22;31236;55.026;61.042;2023-08-12T09:04:59;21.10;51.50
45489;DHT22;31236;55.026;61.042;2023-08-12T09:07:31;21.10;51.30
45489;DHT22;31236;55.026;61.042;2023-08-12T09:10:03;21.10;51.50
45489;DHT22;31236;55.026;61.042;2023-08-12T09:12:34;21.10;51.60
45489;DHT22;31236;55.026;61.042;2023-08-12T09:15:05;21.10;51.70
45489;DHT22;31236;55.026;61.042;2023-08-12T09:17:37;21.20;51.80
45489;DHT22;31236;55.026;61.042;2023-08-12T09:20:07;21.10;52.10
45489;DHT22;31236;55.026;61.042;2023-08-12T09:22:58;21.10;52.10
45489;DHT22;31236;55.026;61.042;2023-08-12T09:26:01;21.10;52.00
45489;DHT22;31236;55.026;61.042;2023-08-12T09:28:01;21.10;52.00
45489;DHT22;31236;55.026;61.042;2023-08-12T09:30:32;21.10;51.90
45489;DHT22;31236;55.026;61.042;2023-08-12T09:33:03;21.20;52.30
45489;DHT22;31236;55.026;61.042;2023-08-12T09:35:37;21.30;52.40
45489;DHT22;31236;55.026;61.042;2023-08-12T09:38:10;21.30;52.30
45489;DHT22;31236;55.026;61.042;2023-08-12T09:40:40;21.30;52.30
45489;DHT22;31236;55.026;61.042;2023-08-12T09:43:11;21.30;52.30
45489;DHT22;31236;55.026;61.042;2023-08-12T09:45:43;21.30;52.20
45489;DHT22;31236;55.026;61.042;2023-08-12T09:48:16;21.30;52.20
45489;DHT22;31236;55.026;61.042;2023-08-12T09:50:45;21.30;52.20
45489;DHT22;31236;55.026;61.042;2023-08-12T09:53:15;21.30;52.20
45489;DHT22;31236;55.026;61.042;2023-08-12T09:55:47;21.30;52.00
45489;DHT22;31236;55.026;61.042;2023-08-12T09:58:19;21.30;52.10
45489;DHT22;31236;55.026;61.042;2023-08-12T10:00:52;21.30;52.10
45489;DHT22;31236;55.026;61.042;2023-08-12T10:03:23;21.40;52.20
45489;DHT22;31236;55.026;61.042;2023-08-12T10:05:53;21.50;52.30
45489;DHT22;31236;55.026;61.042;2023-08-12T10:08:24;21.50;52.20
45489;DHT22;31236;55.026;61.042;2023-08-12T10:10:54;21.60;52.40
45489;DHT22;31236;55.026;61.042;2023-08-12T10:13:25;21.70;52.30
45489;DHT22;31236;55.026;61.042;2023-08-12T10:15:55;21.80;52.30
45489;DHT22;31236;55.026;61.042;2023-08-12T10:18:26;21.80;52.20
45489;DHT22;31236;55.026;61.042;2023-08-12T10:21:17;21.80;52.10
45489;DHT22;31236;55.026;61.042;2023-08-12T10:23:47;21.90;52.10
45489;DHT22;31236;55.026;61.042;2023-08-12T10:26:18;21.80;52.10
45489;DHT22;31236;55.026;61.042;2023-08-12T10:28:49;21.90;52.00
45489;DHT22;31236;55.026;61.042;2023-08-12T10:31:20;22.00;51.80
45489;DHT22;31236;55.026;61.042;2023-08-12T10:33:50;22.00;52.00
45489;DHT22;31236;55.026;61.042;2023-08-12T10:36:21;22.00;51.60
45489;DHT22;31236;55.026;61.042;2023-08-12T10:38:51;22.00;51.70
45489;DHT22;31236;55.026;61.042;2023-08-12T10:41:23;21.90;51.70
45489;DHT22;31236;55.026;61.042;2023-08-12T10:44:14;21.90;51.60
45489;DHT22;31236;55.026;61.042;2023-08-12T10:46:49;22.00;51.50
45489;DHT22;31236;55.026;61.042;2023-08-12T10:49:18;22.00;51.20
45489;DHT22;31236;55.026;61.042;2023-08-12T10:54:40;21.90;51.00
45489;DHT22;31236;55.026;61.042;2023-08-12T10:57:10;21.90;51.00
45489;DHT22;31236;55.026;61.042;2023-08-12T11:00:00;21.90;50.80
45489;DHT22;31236;55.026;61.042;2023-08-12T11:02:37;21.90;50.70
45489;DHT22;31236;55.026;61.042;2023-08-12T11:05:35;22.00;50.70
45489;DHT22;31236;55.026;61.042;2023-08-12T11:08:00;22.00;50.60
45489;DHT22;31236;55.026;61.042;2023-08-12T11:13:05;22.10;50.60
45489;DHT22;31236;55.026;61.042;2023-08-12T11:15:36;22.20;50.60
45489;DHT22;31236;55.026;61.042;2023-08-12T11:18:10;22.30;50.50
45489;DHT22;31236;55.026;61.042;2023-08-12T11:20:41;22.30;50.40
45489;DHT22;31236;55.026;61.042;2023-08-12T11:23:11;22.30;50.20
45489;DHT22;31236;55.026;61.042;2023-08-12T11:25:43;22.30;50.30
45489;DHT22;31236;55.026;61.042;2023-08-12T11:28:15;22.30;50.50
45489;DHT22;31236;55.026;61.042;2023-08-12T11:30:45;22.40;50.40
45489;DHT22;31236;55.026;61.042;2023-08-12T11:33:16;22.40;50.20
45489;DHT22;31236;55.026;61.042;2023-08-12T11:35:47;22.40;50.30
45489;DHT22;31236;55.026;61.042;2023-08-12T11:38:17;22.50;50.20
45489;DHT22;31236;55.026;61.042;2023-08-12T11:40:47;22.40;50.20
45489;DHT22;31236;55.026;61.042;2023-08-12T11:43:21;22.50;50.20
45489;DHT22;31236;55.026;61.042;2023-08-12T11:45:51;22.60;50.30
45489;DHT22;31236;55.026;61.042;2023-08-12T11:48:21;22.60;50.00
45489;DHT22;31236;55.026;61.042;2023-08-12T11:50:51;22.60;50.10
45489;DHT22;31236;55.026;61.042;2023-08-12T11:53:22;22.60;50.20
45489;DHT22;31236;55.026;61.042;2023-08-12T11:55:52;22.70;50.30
45489;DHT22;31236;55.026;61.042;2023-08-12T11:58:23;22.80;50.40
45489;DHT22;31236;55.026;61.042;2023-08-12T12:00:52;22.70;50.30
45489;DHT22;31236;55.026;61.042;2023-08-12T12:03:27;22.70;50.30
45489;DHT22;31236;55.026;61.042;2023-08-12T12:05:57;22.70;50.40
45489;DHT22;31236;55.026;61.042;2023-08-12T12:08:30;22.70;50.20
45489;DHT22;31236;55.026;61.042;2023-08-12T12:13:51;22.50;49.50
45489;DHT22;31236;55.026;61.042;2023-08-12T12:16:21;22.60;49.70
45489;DHT22;31236;55.026;61.042;2023-08-12T12:19:25;22.60;49.80
45489;DHT22;31236;55.026;61.042;2023-08-12T12:21:24;22.60;49.90
45489;DHT22;31236;55.026;61.042;2023-08-12T12:23:55;22.50;49.90
45489;DHT22;31236;55.026;61.042;2023-08-12T12:26:25;22.40;49.70
45489;DHT22;31236;55.026;61.042;2023-08-12T12:28:55;22.40;49.70
45489;DHT22;31236;55.026;61.042;2023-08-12T12:31:25;22.30;49.60
45489;DHT22;31236;55.026;61.042;2023-08-12T12:33:55;22.30;49.50
45489;DHT22;31236;55.026;61.042;2023-08-12T12:36:25;22.30;49.10
45489;DHT22;31236;55.026;61.042;2023-08-12T12:38:55;22.30;48.90
45489;DHT22;31236;55.026;61.042;2023-08-12T12:41:25;22.30;48.90
45489;DHT22;31236;55.026;61.042;2023-08-12T12:43:55;22.30;48.90
45489;DHT22;31236;55.026;61.042;2023-08-12T12:46:25;22.20;48.90
45489;DHT22;31236;55.026;61.042;2023-08-12T12:48:55;22.20;49.20
45489;DHT22;31236;55.026;61.042;2023-08-12T12:51:25;22.20;49.20
45489;DHT22;31236;55.026;61.042;2023-08-12T12:53:55;22.30;49.10
45489;DHT22;31236;55.026;61.042;2023-08-12T12:56:25;22.30;48.80
45489;DHT22;31236;55.026;61.042;2023-08-12T12:58:55;22.20;48.90
45489;DHT22;31236;55.026;61.042;2023-08-12T13:01:26;22.10;48.90
45489;DHT22;31236;55.026;61.042;2023-08-12T13:03:57;22.10;48.90
45489;DHT22;31236;55.026;61.042;2023-08-12T13:06:27;22.10;48.80
45489;DHT22;31236;55.026;61.042;2023-08-12T13:08:57;22.00;48.80
45489;DHT22;31236;55.026;61.042;2023-08-12T13:11:27;22.00;48.90
45489;DHT22;31236;55.026;61.042;2023-08-12T13:13:58;22.10;49.20
45489;DHT22;31236;55.026;61.042;2023-08-12T13:16:28;22.10;49.20
45489;DHT22;31236;55.026;61.042;2023-08-12T13:18:59;22.10;49.20
45489;DHT22;31236;55.026;61.042;2023-08-12T13:21:29;22.10;49.20
45489;DHT22;31236;55.026;61.042;2023-08-12T13:24:00;22.20;49.30
45489;DHT22;31236;55.026;61.042;2023-08-12T13:26:31;22.10;49.40
45489;DHT22;31236;55.026;61.042;2023-08-12T13:29:01;22.10;49.80
45489;DHT22;31236;55.026;61.042;2023-08-12T13:31:31;22.10;49.50
45489;DHT22;31236;55.026;61.042;2023-08-12T13:34:01;22.10;49.80
45489;DHT22;31236;55.026;61.042;2023-08-12T13:36:30;22.20;50.00
45489;DHT22;31236;55.026;61.042;2023-08-12T13:39:01;22.20;50.20
45489;DHT22;31236;55.026;61.042;2023-08-12T13:41:32;22.20;50.40
45489;DHT22;31236;55.026;61.042;2023-08-12T13:44:03;22.30;50.50
45489;DHT22;31236;55.026;61.042;2023-08-12T13:46:33;22.30;50.50
45489;DHT22;31236;55.026;61.042;2023-08-12T13:49:04;22.30;50.70
45489;DHT22;31236;55.026;61.042;2023-08-12T13:51:34;22.30;50.60
45489;DHT22;31236;55.026;61.042;2023-08-12T13:54:05;22.20;50.60
45489;DHT22;31236;55.026;61.042;2023-08-12T13:56:35;22.10;50.70
45489;DHT22;31236;55.026;61.042;2023-08-12T13:59:05;22.00;50.80
45489;DHT22;31236;55.026;61.042;2023-08-12T14:01:35;22.00;50.90
45489;DHT22;31236;55.026;61.042;2023-08-12T14:04:05;21.90;51.00
45489;DHT22;31236;55.026;61.042;2023-08-12T14:06:36;21.90;51.00
45489;DHT22;31236;55.026;61.042;2023-08-12T14:09:08;21.80;51.20
45489;DHT22;31236;55.026;61.042;2023-08-12T14:14:30;21.70;51.50
45489;DHT22;31236;55.026;61.042;2023-08-12T14:17:00;21.60;51.60
45489;DHT22;31236;55.026;61.042;2023-08-12T14:19:31;21.50;51.80
45489;DHT22;31236;55.026;61.042;2023-08-12T14:22:01;21.50;52.00
45489;DHT22;31236;55.026;61.042;2023-08-12T14:24:31;21.30;52.10
45489;DHT22;31236;55.026;61.042;2023-08-12T14:27:01;21.20;52.20
45489;DHT22;31236;55.026;61.042;2023-08-12T14:29:31;21.20;52.30
45489;DHT22;31236;55.026;61.042;2023-08-12T14:32:02;21.10;52.40
45489;DHT22;31236;55.026;61.042;2023-08-12T14:34:32;21.00;52.70
45489;DHT22;31236;55.026;61.042;2023-08-12T14:37:03;20.90;52.70
45489;DHT22;31236;55.026;61.042;2023-08-12T14:39:35;20.90;52.80
45489;DHT22;31236;55.026;61.042;2023-08-12T14:42:05;20.80;52.90
45489;DHT22;31236;55.026;61.042;2023-08-12T14:44:37;20.80;53.00
45489;DHT22;31236;55.026;61.042;2023-08-12T14:47:07;20.70;53.10
45489;DHT22;31236;55.026;61.042;2023-08-12T14:49:37;20.70;53.30
45489;DHT22;31236;55.026;61.042;2023-08-12T14:54:58;20.50;53.50
45489;DHT22;31236;55.026;61.042;2023-08-12T14:57:29;20.40;53.70
45489;DHT22;31236;55.026;61.042;2023-08-12T15:00:00;20.30;53.80
45489;DHT22;31236;55.026;61.042;2023-08-12T15:02:33;20.20;53.90
45489;DHT22;31236;55.026;61.042;2023-08-12T15:05:04;20.20;54.10
45489;DHT22;31236;55.026;61.042;2023-08-12T15:07:34;20.10;54.30
45489;DHT22;31236;55.026;61.042;2023-08-12T15:10:04;20.10;54.60
45489;DHT22;31236;55.026;61.042;2023-08-12T15:12:34;20.00;54.70
45489;DHT22;31236;55.026;61.042;2023-08-12T15:15:05;20.00;54.80
45489;DHT22;31236;55.026;61.042;2023-08-12T15:17:34;19.90;54.80
45489;DHT22;31236;55.026;61.042;2023-08-12T15:20:05;19.80;54.90
45489;DHT22;31236;55.026;61.042;2023-08-12T15:22:37;19.70;54.90
45489;DHT22;31236;55.026;61.042;2023-08-12T15:25:07;19.70;54.90
45489;DHT22;31236;55.026;61.042;2023-08-12T15:27:37;19.60;55.10
45489;DHT22;31236;55.026;61.042;2023-08-12T15:30:08;19.50;55.30
45489;DHT22;31236;55.026;61.042;2023-08-12T15:32:38;19.40;55.40
45489;DHT22;31236;55.026;61.042;2023-08-12T15:35:09;19.40;55.50
45489;DHT22;31236;55.026;61.042;2023-08-12T15:37:39;19.30;55.70
45489;DHT22;31236;55.026;61.042;2023-08-12T15:40:10;19.20;55.90
45489;DHT22;31236;55.026;61.042;2023-08-12T15:42:40;19.10;55.90
45489;DHT22;31236;55.026;61.042;2023-08-12T15:45:12;19.10;55.90
45489;DHT22;31236;55.026;61.042;2023-08-12T15:47:42;19.00;55.90
45489;DHT22;31236;55.026;61.042;2023-08-12T15:50:12;19.00;56.00
45489;DHT22;31236;55.026;61.042;2023-08-12T15:52:42;18.90;56.10
45489;DHT22;31236;55.026;61.042;2023-08-12T15:55:12;18.80;56.30
45489;DHT22;31236;55.026;61.042;2023-08-12T15:57:42;18.70;56.40
45489;DHT22;31236;55.026;61.042;2023-08-12T16:00:12;18.70;56.50
45489;DHT22;31236;55.026;61.042;2023-08-12T16:02:43;18.70;56.90
45489;DHT22;31236;55.026;61.042;2023-08-12T16:05:13;18.60;57.40
45489;DHT22;31236;55.026;61.042;2023-08-12T16:07:42;18.50;57.40
45489;DHT22;31236;55.026;61.042;2023-08-12T16:10:12;18.40;57.50
45489;DHT22;31236;55.026;61.042;2023-08-12T16:12:42;18.30;57.70
45489;DHT22;31236;55.026;61.042;2023-08-12T16:15:12;18.20;57.70
45489;DHT22;31236;55.026;61.042;2023-08-12T16:17:42;18.10;57.80
45489;DHT22;31236;55.026;61.042;2023-08-12T16:20:12;18.00;58.00